createdAt,value
2023-04-18T00:00:03.362Z,4.21
2023-04-18T00:01:03.301Z,4.15
2023-04-18T00:02:03.318Z,4.09
2023-04-18T00:03:04.594Z,4.11
2023-04-18T00:04:03.404Z,4.15
2023-04-18T00:05:03.217Z,4.12
2023-04-18T00:06:03.111Z,4.07
2023-04-18T00:07:03.073Z,4.15
2023-04-18T00:08:03.039Z,4.15
2023-04-18T00:09:03.011Z,4.09
2023-04-18T00:10:02.972Z,4.12
2023-04-18T00:11:02.928Z,4.05
2023-04-18T00:12:02.886Z,4.00
2023-04-18T00:13:02.853Z,3.97
2023-04-18T00:14:02.843Z,3.99
2023-04-18T00:15:02.840Z,4.02
2023-04-18T00:16:02.761Z,4.05
2023-04-18T00:17:02.902Z,4.02
2023-04-18T00:18:02.719Z,3.92
2023-04-18T00:19:02.651Z,3.98
2023-04-18T00:20:02.629Z,3.94
2023-04-18T00:21:02.585Z,4.01
2023-04-18T00:22:02.575Z,3.85
2023-04-18T00:23:02.545Z,3.91
2023-04-18T00:24:02.549Z,3.92
2023-04-18T00:25:02.530Z,3.95
2023-04-18T00:26:02.486Z,3.88
2023-04-18T00:27:02.472Z,4.00
2023-04-18T00:28:02.447Z,3.90
2023-04-18T00:29:02.435Z,3.87
2023-04-18T00:30:02.438Z,3.81
2023-04-18T00:31:02.489Z,3.89
2023-04-18T00:32:02.401Z,3.84
2023-04-18T00:33:02.400Z,3.78
2023-04-18T00:34:02.372Z,3.79
2023-04-18T00:35:02.360Z,3.78
2023-04-18T00:36:02.341Z,3.76
2023-04-18T00:37:02.334Z,3.84
2023-04-18T00:38:02.303Z,3.86
2023-04-18T00:39:02.345Z,3.86
2023-04-18T00:40:02.284Z,3.78
2023-04-18T00:41:02.284Z,3.72
2023-04-18T00:42:02.261Z,3.73
2023-04-18T00:43:02.264Z,3.74
2023-04-18T00:44:02.228Z,3.73
2023-04-18T00:45:02.207Z,3.69
2023-04-18T00:46:02.268Z,3.80
2023-04-18T00:47:02.270Z,3.66
2023-04-18T00:48:02.218Z,3.72
2023-04-18T00:49:02.159Z,3.70
2023-04-18T00:50:02.141Z,3.71
2023-04-18T00:51:02.118Z,3.75
2023-04-18T00:52:02.138Z,3.65
2023-04-18T00:53:02.057Z,3.68
2023-04-18T00:54:02.040Z,3.70
2023-04-18T00:55:02.038Z,3.73
2023-04-18T00:56:02.042Z,3.57
2023-04-18T00:57:01.992Z,3.63
2023-04-18T00:58:01.996Z,3.57
2023-04-18T00:59:01.981Z,3.61
2023-04-18T01:00:01.951Z,3.63
2023-04-18T01:01:01.930Z,3.60
2023-04-18T01:02:02.124Z,3.59
2023-04-18T01:03:02.084Z,3.69
2023-04-18T01:04:02.057Z,3.61
2023-04-18T01:05:01.868Z,3.59
2023-04-18T01:06:01.836Z,3.58
2023-04-18T01:07:01.811Z,3.57
2023-04-18T01:08:01.804Z,3.66
2023-04-18T01:09:01.777Z,3.54
2023-04-18T01:10:01.810Z,3.50
2023-04-18T01:11:01.769Z,3.54
2023-04-18T01:12:01.742Z,3.55
2023-04-18T01:13:01.673Z,3.55
2023-04-18T01:14:01.707Z,3.55
2023-04-18T01:15:01.651Z,3.56
2023-04-18T01:16:01.619Z,3.48
2023-04-18T01:17:01.509Z,3.52
2023-04-18T01:18:01.546Z,3.55
2023-04-18T01:19:01.421Z,3.46
2023-04-18T01:20:01.384Z,3.44
2023-04-18T01:21:01.342Z,3.47
2023-04-18T01:22:01.293Z,3.41
2023-04-18T01:23:01.246Z,3.49
2023-04-18T01:24:01.219Z,3.53
2023-04-18T01:25:01.157Z,3.39
2023-04-18T01:26:01.138Z,3.45
2023-04-18T01:27:01.067Z,3.45
2023-04-18T01:28:01.022Z,3.49
2023-04-18T01:29:00.985Z,3.39
2023-04-18T01:30:00.940Z,3.41
2023-04-18T01:31:00.937Z,3.42
2023-04-18T01:32:00.858Z,3.44
2023-04-18T01:33:00.920Z,3.39
2023-04-18T01:34:00.814Z,3.41
2023-04-18T01:35:00.816Z,3.38
2023-04-18T01:36:00.816Z,3.38
2023-04-18T01:37:00.811Z,3.41
2023-04-18T01:38:00.782Z,3.38
2023-04-18T01:39:00.784Z,3.39
2023-04-18T01:40:00.773Z,3.38
2023-04-18T01:41:00.736Z,3.30
2023-04-18T01:42:00.726Z,3.32
2023-04-18T01:43:00.746Z,3.33
2023-04-18T01:44:00.671Z,3.39
2023-04-18T01:45:00.652Z,3.36
2023-04-18T01:46:00.629Z,3.33
2023-04-18T01:47:00.611Z,3.30
2023-04-18T01:48:00.650Z,3.38
2023-04-18T01:49:00.530Z,3.29
2023-04-18T01:50:00.532Z,3.28
2023-04-18T01:51:00.491Z,3.25
2023-04-18T01:52:00.493Z,3.33
2023-04-18T01:53:00.454Z,3.27
2023-04-18T01:54:00.439Z,3.22
2023-04-18T01:55:00.431Z,3.31
2023-04-18T01:56:00.416Z,3.24
2023-04-18T01:57:00.384Z,3.31
2023-04-18T01:58:00.355Z,3.24
2023-04-18T01:59:00.351Z,3.23
2023-04-18T02:00:00.302Z,3.23
2023-04-18T02:01:00.310Z,3.24
2023-04-18T02:02:00.273Z,3.23
2023-04-18T02:03:00.344Z,3.24
2023-04-18T02:04:00.272Z,3.24
2023-04-18T02:05:00.126Z,3.17
2023-04-18T02:06:00.077Z,3.25
2023-04-18T02:07:00.046Z,3.21
2023-04-18T02:08:00.017Z,3.19
2023-04-18T02:08:59.955Z,3.17
2023-04-18T02:09:59.911Z,3.23
2023-04-18T02:10:59.871Z,3.18
2023-04-18T02:11:59.828Z,3.17
2023-04-18T02:12:59.805Z,3.19
2023-04-18T02:13:59.785Z,3.21
2023-04-18T02:14:59.733Z,3.16
2023-04-18T02:15:59.771Z,3.15
2023-04-18T02:16:59.635Z,3.13
2023-04-18T02:17:59.630Z,3.19
2023-04-18T02:18:59.574Z,3.12
2023-04-18T02:19:59.527Z,3.04
2023-04-18T02:20:59.508Z,3.12
2023-04-18T02:21:59.464Z,3.13
2023-04-18T02:22:59.421Z,3.09
2023-04-18T02:23:59.372Z,3.05
2023-04-18T02:24:59.333Z,3.08
2023-04-18T02:25:59.304Z,3.08
2023-04-18T02:26:59.253Z,3.09
2023-04-18T02:27:59.223Z,3.11
2023-04-18T02:28:59.204Z,3.02
2023-04-18T02:29:59.197Z,3.02
2023-04-18T02:30:59.191Z,3.10
2023-04-18T02:31:59.199Z,3.00
2023-04-18T02:32:59.236Z,3.01
2023-04-18T02:33:59.171Z,3.02
2023-04-18T02:34:59.134Z,2.99
2023-04-18T02:35:59.150Z,3.02
2023-04-18T02:36:59.117Z,2.97
2023-04-18T02:37:59.074Z,3.00
2023-04-18T02:38:59.073Z,3.05
2023-04-18T02:39:59.054Z,2.96
2023-04-18T02:40:59.027Z,2.99
2023-04-18T02:41:59.045Z,2.94
2023-04-18T02:42:59.007Z,2.93
2023-04-18T02:43:58.958Z,2.89
2023-04-18T02:44:58.952Z,2.89
2023-04-18T02:45:58.941Z,2.77
2023-04-18T02:46:58.832Z,2.64
2023-04-18T02:47:58.809Z,2.26
2023-04-18T02:48:58.761Z,2.03
2023-04-18T02:49:58.716Z,1.82
2023-04-18T02:50:58.714Z,1.71
2023-04-18T02:51:58.685Z,1.57
2023-04-18T02:52:58.634Z,1.51
2023-04-18T02:53:58.628Z,1.39
2023-04-18T02:54:58.610Z,1.32
2023-04-18T02:55:58.578Z,1.24
2023-04-18T02:56:58.574Z,1.18
2023-04-18T02:57:58.560Z,1.15
2023-04-18T02:58:58.545Z,1.10
2023-04-18T02:59:58.507Z,1.05
2023-04-18T03:00:58.524Z,1.03
2023-04-18T03:01:58.495Z,0.99
2023-04-18T03:02:58.521Z,0.95
2023-04-18T03:03:58.452Z,0.90
2023-04-18T03:04:58.461Z,0.87
2023-04-18T03:05:58.431Z,0.83
2023-04-18T03:06:58.396Z,0.80
2023-04-18T03:07:58.381Z,0.78
2023-04-18T03:08:58.379Z,0.75
2023-04-18T03:09:58.362Z,0.72
2023-04-18T03:10:58.353Z,0.70
2023-04-18T03:11:58.350Z,0.68
2023-04-18T03:12:58.316Z,0.67
2023-04-18T03:13:58.317Z,0.65
2023-04-18T03:14:58.297Z,0.63
2023-04-18T03:15:58.317Z,0.61
2023-04-18T03:16:58.280Z,0.60
2023-04-18T03:17:58.335Z,0.58
2023-04-18T03:18:58.338Z,0.58
2023-04-18T03:19:58.354Z,0.56
2023-04-18T03:20:58.384Z,0.55
2023-04-18T03:21:58.424Z,0.53
2023-04-18T03:22:58.446Z,0.52
2023-04-18T03:23:58.473Z,0.50
2023-04-18T03:24:58.495Z,0.50
2023-04-18T03:25:58.550Z,0.50
2023-04-18T03:26:58.574Z,0.50
2023-04-18T03:27:58.614Z,0.50
2023-04-18T03:28:58.663Z,0.50
2023-04-18T03:29:58.686Z,0.50
2023-04-18T03:30:58.787Z,0.50
2023-04-18T03:31:58.799Z,0.50
2023-04-18T03:32:58.983Z,0.50
2023-04-18T03:33:58.881Z,0.50
2023-04-18T03:34:58.918Z,0.50
2023-04-18T03:35:58.935Z,0.50
2023-04-18T03:36:58.996Z,0.50
2023-04-18T03:37:59.021Z,0.50
2023-04-18T03:38:59.060Z,0.50
2023-04-18T03:39:59.096Z,0.50
2023-04-18T03:40:59.161Z,0.51
2023-04-18T03:41:59.230Z,0.50
2023-04-18T03:42:59.256Z,0.50
2023-04-18T03:43:59.316Z,0.50
2023-04-18T03:44:59.351Z,0.50
2023-04-18T03:45:59.486Z,0.50
2023-04-18T03:46:59.477Z,0.50
2023-04-18T03:47:59.547Z,0.50
2023-04-18T03:48:59.540Z,0.50
2023-04-18T03:49:59.601Z,0.50
2023-04-18T03:50:59.649Z,0.51
2023-04-18T03:51:59.695Z,0.50
2023-04-18T03:52:59.762Z,0.50
2023-04-18T03:53:59.768Z,0.50
2023-04-18T03:54:59.799Z,0.50
2023-04-18T03:55:59.821Z,0.51
2023-04-18T03:56:59.780Z,0.51
2023-04-18T03:57:59.759Z,0.50
2023-04-18T03:58:59.742Z,0.50
2023-04-18T03:59:59.724Z,0.49
2023-04-18T04:00:59.720Z,0.50
2023-04-18T04:01:59.862Z,0.50
2023-04-18T04:02:59.914Z,0.50
2023-04-18T04:03:59.811Z,0.50
2023-04-18T04:04:59.739Z,0.50
2023-04-18T04:05:59.664Z,0.49
2023-04-18T04:06:59.661Z,0.48
2023-04-18T04:07:59.647Z,0.47
2023-04-18T04:08:59.628Z,0.50
2023-04-18T04:09:59.626Z,0.51
2023-04-18T04:10:59.614Z,0.50
2023-04-18T04:11:59.603Z,0.50
2023-04-18T04:12:59.643Z,0.51
2023-04-18T04:13:59.621Z,0.51
2023-04-18T04:14:59.662Z,0.51
2023-04-18T04:15:59.654Z,0.51
2023-04-18T04:16:59.637Z,0.50
2023-04-18T04:17:59.588Z,0.50
2023-04-18T04:18:59.561Z,0.51
2023-04-18T04:19:59.553Z,0.51
2023-04-18T04:20:59.538Z,0.52
2023-04-18T04:21:59.532Z,0.51
2023-04-18T04:22:59.526Z,0.51
2023-04-18T04:23:59.581Z,0.50
2023-04-18T04:24:59.623Z,0.52
2023-04-18T04:25:59.670Z,0.52
2023-04-18T04:26:59.741Z,0.52
2023-04-18T04:27:59.766Z,0.52
2023-04-18T04:28:59.808Z,0.52
2023-04-18T04:29:59.850Z,0.51
2023-04-18T04:30:59.921Z,0.51
2023-04-18T04:32:00.010Z,0.51
2023-04-18T04:33:00.037Z,0.52
2023-04-18T04:34:00.081Z,0.51
2023-04-18T04:35:00.052Z,0.51
2023-04-18T04:36:00.038Z,0.52
2023-04-18T04:37:00.023Z,0.52
2023-04-18T04:38:00.036Z,0.54
2023-04-18T04:39:00.010Z,0.54
2023-04-18T04:39:59.997Z,0.55
2023-04-18T04:41:00.005Z,0.55
2023-04-18T04:41:59.972Z,0.57
2023-04-18T04:42:59.969Z,0.57
2023-04-18T04:44:00.006Z,0.56
2023-04-18T04:45:00.128Z,0.59
2023-04-18T04:46:00.204Z,0.59
2023-04-18T04:47:00.178Z,0.59
2023-04-18T04:48:00.284Z,0.61
2023-04-18T04:49:00.292Z,0.61
2023-04-18T04:50:00.355Z,0.64
2023-04-18T04:51:00.413Z,0.65
2023-04-18T04:52:01.984Z,0.65
2023-04-18T04:53:00.543Z,0.65
2023-04-18T04:54:00.587Z,0.64
2023-04-18T04:55:00.629Z,0.65
2023-04-18T04:56:00.681Z,0.64
2023-04-18T04:57:00.746Z,0.65
2023-04-18T04:58:00.805Z,0.65
2023-04-18T04:59:00.863Z,0.64
2023-04-18T05:00:00.955Z,0.63
2023-04-18T05:01:01.017Z,0.63
2023-04-18T05:02:01.074Z,0.64
2023-04-18T05:03:01.444Z,0.63
2023-04-18T05:04:01.277Z,0.63
2023-04-18T05:05:01.221Z,0.63
2023-04-18T05:06:01.273Z,0.61
2023-04-18T05:07:01.333Z,0.62
2023-04-18T05:08:01.399Z,0.60
2023-04-18T05:09:01.430Z,0.60
2023-04-18T05:10:01.503Z,0.60
2023-04-18T05:11:01.583Z,0.60
2023-04-18T05:12:01.630Z,0.61
2023-04-18T05:13:01.682Z,0.60
2023-04-18T05:14:01.734Z,0.61
2023-04-18T05:15:01.849Z,0.61
2023-04-18T05:16:01.922Z,0.60
2023-04-18T05:17:02.095Z,0.61
2023-04-18T05:18:02.015Z,0.61
2023-04-18T05:19:02.065Z,0.61
2023-04-18T05:20:02.132Z,0.60
2023-04-18T05:21:02.159Z,0.60
2023-04-18T05:22:02.238Z,0.58
2023-04-18T05:23:02.249Z,0.57
2023-04-18T05:24:02.248Z,0.57
2023-04-18T05:25:02.274Z,0.55
2023-04-18T05:26:02.219Z,0.54
2023-04-18T05:27:02.200Z,0.51
2023-04-18T05:28:02.210Z,0.50
2023-04-18T05:29:02.199Z,0.50
2023-04-18T05:30:02.188Z,0.52
2023-04-18T05:31:02.238Z,0.55
2023-04-18T05:32:02.167Z,0.60
2023-04-18T05:33:02.231Z,0.68
2023-04-18T05:34:02.129Z,0.78
2023-04-18T05:35:02.185Z,0.95
2023-04-18T05:36:02.094Z,1.05
2023-04-18T05:37:02.138Z,1.11
2023-04-18T05:38:02.212Z,1.09
2023-04-18T05:39:02.207Z,0.98
2023-04-18T05:40:02.238Z,0.90
2023-04-18T05:41:02.234Z,0.84
2023-04-18T05:42:02.685Z,0.81
2023-04-18T05:43:02.263Z,0.76
2023-04-18T05:44:05.283Z,0.90
2023-04-18T05:45:02.160Z,1.07
2023-04-18T05:46:02.163Z,1.19
2023-04-18T05:47:02.122Z,1.37
2023-04-18T05:48:02.197Z,1.46
2023-04-18T05:49:02.071Z,1.62
2023-04-18T05:50:02.053Z,1.72
2023-04-18T05:51:02.033Z,1.92
2023-04-18T05:52:01.986Z,2.07
2023-04-18T05:53:01.934Z,2.18
2023-04-18T05:54:01.884Z,2.19
2023-04-18T05:55:01.834Z,2.23
2023-04-18T05:56:01.777Z,2.36
2023-04-18T05:57:03.875Z,2.66
2023-04-18T05:58:01.971Z,3.25
2023-04-18T05:59:01.992Z,3.81
2023-04-18T06:00:02.004Z,4.24
2023-04-18T06:01:01.952Z,4.73
2023-04-18T06:02:02.029Z,4.96
2023-04-18T06:03:02.146Z,4.98
2023-04-18T06:04:02.078Z,5.27
2023-04-18T06:05:02.113Z,5.56
2023-04-18T06:06:01.968Z,5.79
2023-04-18T06:07:01.883Z,5.80
2023-04-18T06:08:01.782Z,5.83
2023-04-18T06:09:01.714Z,5.98
2023-04-18T06:10:01.703Z,6.38
2023-04-18T06:11:01.726Z,6.94
2023-04-18T06:12:01.667Z,5.83
2023-04-18T06:13:01.946Z,5.98
2023-04-18T06:14:01.486Z,6.39
2023-04-18T06:15:01.510Z,6.71
2023-04-18T06:16:01.426Z,7.77
2023-04-18T06:17:01.360Z,8.53
2023-04-18T06:18:01.405Z,8.66
2023-04-18T06:19:01.508Z,8.88
2023-04-18T06:20:01.232Z,9.34
2023-04-18T06:21:01.195Z,9.12
2023-04-18T06:22:01.120Z,9.27
2023-04-18T06:23:01.115Z,9.41
2023-04-18T06:24:01.014Z,9.68
2023-04-18T06:25:00.972Z,9.32
2023-04-18T06:26:00.918Z,8.77
2023-04-18T06:27:00.879Z,7.34
2023-04-18T06:28:00.951Z,6.54
2023-04-18T06:29:00.794Z,5.49
2023-04-18T06:30:00.728Z,4.93
2023-04-18T06:31:00.774Z,4.33
2023-04-18T06:32:00.807Z,4.08
2023-04-18T06:33:00.682Z,3.73
2023-04-18T06:34:00.659Z,3.78
2023-04-18T06:35:00.543Z,3.62
2023-04-18T06:36:00.492Z,3.54
2023-04-18T06:37:00.448Z,3.28
2023-04-18T06:38:00.401Z,3.07
2023-04-18T06:39:00.538Z,3.09
2023-04-18T06:40:00.339Z,3.00
2023-04-18T06:41:00.343Z,2.77
2023-04-18T06:42:00.279Z,2.87
2023-04-18T06:43:00.231Z,2.97
2023-04-18T06:44:04.099Z,2.76
2023-04-18T06:45:00.172Z,2.76
2023-04-18T06:46:00.177Z,2.67
2023-04-18T06:47:00.092Z,2.60
2023-04-18T06:48:00.134Z,2.46
2023-04-18T06:49:00.042Z,2.34
2023-04-18T06:50:00.060Z,2.21
2023-04-18T06:50:59.975Z,2.04
2023-04-18T06:51:59.936Z,2.01
2023-04-18T06:52:59.875Z,2.64
2023-04-18T06:53:59.859Z,2.30
2023-04-18T06:54:59.915Z,1.95
2023-04-18T06:55:59.774Z,1.70
2023-04-18T06:56:59.759Z,1.55
2023-04-18T06:57:59.713Z,1.53
2023-04-18T06:58:59.669Z,1.41
2023-04-18T06:59:59.622Z,1.33
2023-04-18T07:00:59.640Z,1.23
2023-04-18T07:01:59.573Z,1.18
2023-04-18T07:02:59.672Z,1.07
2023-04-18T07:03:59.551Z,1.02
2023-04-18T07:04:59.468Z,0.96
2023-04-18T07:05:59.512Z,0.89
2023-04-18T07:06:59.526Z,0.83
2023-04-18T07:07:59.599Z,0.74
2023-04-18T07:08:59.618Z,0.69
2023-04-18T07:09:59.662Z,0.66
2023-04-18T07:10:59.735Z,0.62
2023-04-18T07:11:59.732Z,0.62
2023-04-18T07:12:59.806Z,0.59
2023-04-18T07:13:59.780Z,0.63
2023-04-18T07:14:59.794Z,0.64
2023-04-18T07:15:59.800Z,0.64
2023-04-18T07:16:59.810Z,0.67
2023-04-18T07:17:59.834Z,0.69
2023-04-18T07:18:59.846Z,0.69
2023-04-18T07:19:59.753Z,0.72
2023-04-18T07:20:59.755Z,0.73
2023-04-18T07:21:59.758Z,0.72
2023-04-18T07:22:59.729Z,0.71
2023-04-18T07:23:59.732Z,0.73
2023-04-18T07:24:59.764Z,0.72
2023-04-18T07:25:59.755Z,0.75
2023-04-18T07:26:59.660Z,0.75
2023-04-18T07:27:59.613Z,0.75
2023-04-18T07:28:59.584Z,0.75
2023-04-18T07:29:59.544Z,0.76
2023-04-18T07:30:59.539Z,0.76
2023-04-18T07:31:59.448Z,0.77
2023-04-18T07:32:59.447Z,0.81
2023-04-18T07:33:59.379Z,0.85
2023-04-18T07:34:59.357Z,0.82
2023-04-18T07:35:59.290Z,0.80
2023-04-18T07:36:59.241Z,0.78
2023-04-18T07:37:59.210Z,0.83
2023-04-18T07:38:59.277Z,0.91
2023-04-18T07:39:59.139Z,0.99
2023-04-18T07:40:59.220Z,1.14
2023-04-18T07:41:59.163Z,1.33
2023-04-18T07:42:59.007Z,1.51
2023-04-18T07:43:59.015Z,1.63
2023-04-18T07:44:58.996Z,1.76
2023-04-18T07:45:58.924Z,1.84
2023-04-18T07:46:58.852Z,1.99
2023-04-18T07:47:58.987Z,2.08
2023-04-18T07:48:58.823Z,2.24
2023-04-18T07:49:58.761Z,2.31
2023-04-18T07:50:58.742Z,2.35
2023-04-18T07:51:58.732Z,2.47
2023-04-18T07:52:58.665Z,2.56
2023-04-18T07:53:58.679Z,2.59
2023-04-18T07:54:58.644Z,2.71
2023-04-18T07:55:58.612Z,2.77
2023-04-18T07:56:58.560Z,2.79
2023-04-18T07:57:58.571Z,2.78
2023-04-18T07:58:58.733Z,2.90
2023-04-18T07:59:58.480Z,2.99
2023-04-18T08:00:58.441Z,3.09
2023-04-18T08:01:58.392Z,3.10
2023-04-18T08:02:58.479Z,3.07
2023-04-18T08:03:58.412Z,3.12
2023-04-18T08:04:58.507Z,3.17
2023-04-18T08:05:58.263Z,3.17
2023-04-18T08:06:58.172Z,3.18
2023-04-18T08:07:58.155Z,3.21
2023-04-18T08:08:58.123Z,3.26
2023-04-18T08:09:58.082Z,3.29
2023-04-18T08:10:57.987Z,2.89
2023-04-18T08:11:57.933Z,2.30
2023-04-18T08:12:57.874Z,1.83
2023-04-18T08:13:57.833Z,1.51
2023-04-18T08:14:57.835Z,1.33
2023-04-18T08:15:57.812Z,1.15
2023-04-18T08:16:57.703Z,1.04
2023-04-18T08:17:57.679Z,0.96
2023-04-18T08:18:57.692Z,0.87
2023-04-18T08:19:57.585Z,0.81
2023-04-18T08:20:57.558Z,0.75
2023-04-18T08:21:57.549Z,0.70
2023-04-18T08:23:06.773Z,0.65
2023-04-18T08:23:58.520Z,0.60
2023-04-18T08:25:04.204Z,0.54
2023-04-18T08:25:58.472Z,0.50
2023-04-18T08:26:57.389Z,0.46
2023-04-18T08:27:57.356Z,0.43
2023-04-18T08:28:57.352Z,0.39
2023-04-18T08:29:57.311Z,0.37
2023-04-18T08:30:57.460Z,0.42
2023-04-18T08:31:57.290Z,0.51
2023-04-18T08:32:57.238Z,0.56
2023-04-18T08:33:57.252Z,0.61
2023-04-18T08:34:57.186Z,0.67
2023-04-18T08:35:57.097Z,0.73
2023-04-18T08:36:57.085Z,0.83
2023-04-18T08:37:57.092Z,0.90
2023-04-18T08:38:57.084Z,0.92
2023-04-18T08:39:57.038Z,1.02
2023-04-18T08:40:57.010Z,1.11
2023-04-18T08:41:56.969Z,1.19
2023-04-18T08:42:56.935Z,1.30
2023-04-18T08:43:57.190Z,1.30
2023-04-18T08:44:56.830Z,1.32
2023-04-18T08:45:56.801Z,1.37
2023-04-18T08:46:56.728Z,1.43
2023-04-18T08:47:56.794Z,1.60
2023-04-18T08:48:56.603Z,1.50
2023-04-18T08:49:56.551Z,1.50
2023-04-18T08:50:56.516Z,1.52
2023-04-18T08:51:56.452Z,1.54
2023-04-18T08:52:56.388Z,1.65
2023-04-18T08:53:56.383Z,1.91
2023-04-18T08:54:56.321Z,2.06
2023-04-18T08:55:56.285Z,2.13
2023-04-18T08:56:56.183Z,2.22
2023-04-18T08:57:56.137Z,2.33
2023-04-18T08:58:56.097Z,2.44
2023-04-18T08:59:56.048Z,2.52
2023-04-18T09:00:56.071Z,2.63
2023-04-18T09:01:56.002Z,2.64
2023-04-18T09:02:56.183Z,2.74
2023-04-18T09:03:55.922Z,2.82
2023-04-18T09:04:55.819Z,2.89
2023-04-18T09:05:55.753Z,2.99
2023-04-18T09:06:55.689Z,2.98
2023-04-18T09:07:55.632Z,3.01
2023-04-18T09:08:55.585Z,3.14
2023-04-18T09:09:55.540Z,3.25
2023-04-18T09:10:55.474Z,3.42
2023-04-18T09:11:55.413Z,3.43
2023-04-18T09:12:55.369Z,3.56
2023-04-18T09:13:55.309Z,3.64
2023-04-18T09:14:55.275Z,3.65
2023-04-18T09:15:55.224Z,3.73
2023-04-18T09:16:55.197Z,3.71
2023-04-18T09:17:55.158Z,3.79
2023-04-18T09:18:55.079Z,3.66
2023-04-18T09:19:54.999Z,3.74
2023-04-18T09:20:54.958Z,3.74
2023-04-18T09:21:54.912Z,3.65
2023-04-18T09:22:54.848Z,3.59
2023-04-18T09:23:54.832Z,3.51
2023-04-18T09:24:54.749Z,3.48
2023-04-18T09:25:54.736Z,3.49
2023-04-18T09:26:54.643Z,3.50
2023-04-18T09:27:54.590Z,3.41
2023-04-18T09:28:54.545Z,3.46
2023-04-18T09:29:55.260Z,3.43
2023-04-18T09:30:54.511Z,3.51
2023-04-18T09:31:54.467Z,3.66
2023-04-18T09:32:54.377Z,3.76
2023-04-18T09:33:54.425Z,3.55
2023-04-18T09:34:54.288Z,3.78
2023-04-18T09:35:54.229Z,3.78
2023-04-18T09:36:54.199Z,3.91
2023-04-18T09:37:54.094Z,4.05
2023-04-18T09:38:56.684Z,4.00
2023-04-18T09:39:54.019Z,4.00
2023-04-18T09:40:53.955Z,3.70
2023-04-18T09:41:53.918Z,3.48
2023-04-18T09:42:53.851Z,3.29
2023-04-18T09:43:53.815Z,2.96
2023-04-18T09:44:55.135Z,2.82
2023-04-18T09:45:53.791Z,2.46
2023-04-18T09:46:53.677Z,1.85
2023-04-18T09:47:53.718Z,1.50
2023-04-18T09:48:53.551Z,1.18
2023-04-18T09:49:53.540Z,0.89
2023-04-18T09:50:53.494Z,0.72
2023-04-18T09:51:53.442Z,0.53
2023-04-18T09:52:53.378Z,0.49
2023-04-18T09:53:53.336Z,0.50
2023-04-18T09:54:53.288Z,0.50
2023-04-18T09:55:54.320Z,0.50
2023-04-18T09:56:53.223Z,0.49
2023-04-18T09:57:53.129Z,0.41
2023-04-18T09:58:53.101Z,0.34
2023-04-18T09:59:53.057Z,0.36
2023-04-18T10:00:53.067Z,0.34
2023-04-18T10:01:52.974Z,0.36
2023-04-18T10:02:52.958Z,0.40
2023-04-18T10:03:53.054Z,0.42
2023-04-18T10:04:52.964Z,0.50
2023-04-18T10:05:52.838Z,0.54
2023-04-18T10:06:52.824Z,0.50
2023-04-18T10:07:52.793Z,0.51
2023-04-18T10:08:52.731Z,0.51
2023-04-18T10:09:52.761Z,0.51
2023-04-18T10:10:52.669Z,0.51
2023-04-18T10:11:52.596Z,0.52
2023-04-18T10:12:52.606Z,0.51
2023-04-18T10:13:52.541Z,0.47
2023-04-18T10:14:52.442Z,0.49
2023-04-18T10:15:52.474Z,0.46
2023-04-18T10:16:52.368Z,0.47
2023-04-18T10:18:03.637Z,0.50
2023-04-18T10:18:53.289Z,0.47
2023-04-18T10:19:52.242Z,0.47
2023-04-18T10:20:52.217Z,0.51
2023-04-18T10:21:52.120Z,0.52
2023-04-18T10:22:52.183Z,0.52
2023-04-18T10:23:52.270Z,0.56
2023-04-18T10:24:52.064Z,0.55
2023-04-18T10:25:51.984Z,0.63
2023-04-18T10:26:51.913Z,0.61
2023-04-18T10:27:51.995Z,0.56
2023-04-18T10:28:51.826Z,0.55
2023-04-18T10:29:51.822Z,0.54
2023-04-18T10:30:51.777Z,0.56
2023-04-18T10:31:51.863Z,0.58
2023-04-18T10:32:51.685Z,0.62
2023-04-18T10:34:03.239Z,0.59
2023-04-18T10:34:52.563Z,0.59
2023-04-18T10:35:51.555Z,0.59
2023-04-18T10:36:51.447Z,0.56
2023-04-18T10:37:51.416Z,0.50
2023-04-18T10:38:51.415Z,0.37
2023-04-18T10:39:51.336Z,0.41
2023-04-18T10:40:51.389Z,0.48
2023-04-18T10:41:51.527Z,0.55
2023-04-18T10:42:51.245Z,0.56
2023-04-18T10:43:51.190Z,0.59
2023-04-18T10:44:51.183Z,0.64
2023-04-18T10:45:51.151Z,0.68
2023-04-18T10:46:51.217Z,0.70
2023-04-18T10:47:51.158Z,0.71
2023-04-18T10:48:51.061Z,0.74
2023-04-18T10:49:51.029Z,0.78
2023-04-18T10:50:51.035Z,0.80
2023-04-18T10:51:50.997Z,0.80
2023-04-18T10:52:51.013Z,0.80
2023-04-18T10:53:50.911Z,0.83
2023-04-18T10:54:50.860Z,0.84
2023-04-18T10:55:50.816Z,0.85
2023-04-18T10:56:50.781Z,0.84
2023-04-18T10:57:50.717Z,0.84
2023-04-18T10:58:50.655Z,0.88
2023-04-18T10:59:50.620Z,0.88
2023-04-18T11:00:50.592Z,0.90
2023-04-18T11:01:50.544Z,0.91
2023-04-18T11:02:50.685Z,1.00
2023-04-18T11:03:50.781Z,1.11
2023-04-18T11:04:50.387Z,1.14
2023-04-18T11:05:50.326Z,1.22
2023-04-18T11:06:50.311Z,1.28
2023-04-18T11:07:50.256Z,1.23
2023-04-18T11:08:50.173Z,1.17
2023-04-18T11:09:50.112Z,1.11
2023-04-18T11:10:50.085Z,1.07
2023-04-18T11:11:50.027Z,1.06
2023-04-18T11:12:49.962Z,1.17
2023-04-18T11:13:49.904Z,1.16
2023-04-18T11:14:50.040Z,1.18
2023-04-18T11:15:49.880Z,1.09
2023-04-18T11:16:49.796Z,1.01
2023-04-18T11:17:49.706Z,0.91
2023-04-18T11:18:49.633Z,0.82
2023-04-18T11:19:49.592Z,0.78
2023-04-18T11:20:49.535Z,0.75
2023-04-18T11:21:49.484Z,0.67
2023-04-18T11:22:49.445Z,0.60
2023-04-18T11:23:49.427Z,0.55
2023-04-18T11:24:49.327Z,0.54
2023-04-18T11:25:49.316Z,0.55
2023-04-18T11:26:49.302Z,0.56
2023-04-18T11:27:49.178Z,0.50
2023-04-18T11:28:49.228Z,0.53
2023-04-18T11:29:49.097Z,0.61
2023-04-18T11:30:49.055Z,0.71
2023-04-18T11:31:49.034Z,0.82
2023-04-18T11:32:49.014Z,0.92
2023-04-18T11:33:48.902Z,1.04
2023-04-18T11:34:48.864Z,1.10
2023-04-18T11:35:48.863Z,1.26
2023-04-18T11:36:48.919Z,1.42
2023-04-18T11:37:48.877Z,1.56
2023-04-18T11:38:48.898Z,1.79
2023-04-18T11:39:48.888Z,1.95
2023-04-18T11:40:48.889Z,2.24
2023-04-18T11:41:48.886Z,2.59
2023-04-18T11:42:48.980Z,2.94
2023-04-18T11:43:48.901Z,3.23
2023-04-18T11:44:48.901Z,3.60
2023-04-18T11:45:48.961Z,3.93
2023-04-18T11:46:48.844Z,3.94
2023-04-18T11:47:48.845Z,4.02
2023-04-18T11:48:48.718Z,4.26
2023-04-18T11:49:48.660Z,4.87
2023-04-18T11:50:48.606Z,5.69
2023-04-18T11:51:48.539Z,6.24
2023-04-18T11:52:48.475Z,6.67
2023-04-18T11:53:48.417Z,7.06
2023-04-18T11:54:48.374Z,7.49
2023-04-18T11:55:48.325Z,7.96
2023-04-18T11:56:48.323Z,8.02
2023-04-18T11:57:48.289Z,8.50
2023-04-18T11:58:48.313Z,8.92
2023-04-18T11:59:48.281Z,9.53
2023-04-18T12:00:48.305Z,9.81
2023-04-18T12:01:48.354Z,10.19
2023-04-18T12:02:48.380Z,10.50
2023-04-18T12:03:48.510Z,10.58
2023-04-18T12:04:48.410Z,10.78
2023-04-18T12:05:48.587Z,11.13
2023-04-18T12:06:48.316Z,11.25
2023-04-18T12:07:48.296Z,11.66
2023-04-18T12:08:48.277Z,11.45
2023-04-18T12:09:48.270Z,11.90
2023-04-18T12:10:48.257Z,12.45
2023-04-18T12:11:48.228Z,12.27
2023-04-18T12:12:48.227Z,12.32
2023-04-18T12:13:48.189Z,12.58
2023-04-18T12:14:48.247Z,12.49
2023-04-18T12:15:48.252Z,12.56
2023-04-18T12:16:48.216Z,12.70
2023-04-18T12:17:48.248Z,12.89
2023-04-18T12:18:48.195Z,13.19
2023-04-18T12:19:49.826Z,13.20
2023-04-18T12:20:48.197Z,13.10
2023-04-18T12:21:48.179Z,13.17
2023-04-18T12:22:48.150Z,13.56
2023-04-18T12:23:48.151Z,13.63
2023-04-18T12:24:48.107Z,13.67
2023-04-18T12:25:48.079Z,13.76
2023-04-18T12:26:48.068Z,13.45
2023-04-18T12:27:48.045Z,13.67
2023-04-18T12:28:48.022Z,13.63
2023-04-18T12:29:47.995Z,13.58
2023-04-18T12:30:48.251Z,13.72
2023-04-18T12:31:47.970Z,13.94
2023-04-18T12:32:47.917Z,14.04
2023-04-18T12:33:47.871Z,14.48
2023-04-18T12:34:47.849Z,15.20
2023-04-18T12:35:49.578Z,15.97
2023-04-18T12:36:47.775Z,16.34
2023-04-18T12:37:47.731Z,16.81
2023-04-18T12:38:47.687Z,17.17
2023-04-18T12:39:47.657Z,17.62
2023-04-18T12:40:47.615Z,17.95
2023-04-18T12:41:49.608Z,17.99
2023-04-18T12:42:47.499Z,18.23
2023-04-18T12:43:47.453Z,18.75
2023-04-18T12:44:48.095Z,19.40
2023-04-18T12:45:47.285Z,20.91
2023-04-18T12:46:47.275Z,21.67
2023-04-18T12:47:47.189Z,22.09
2023-04-18T12:48:47.082Z,22.22
2023-04-18T12:49:47.023Z,22.64
2023-04-18T12:50:46.963Z,23.47
2023-04-18T12:51:46.899Z,23.38
2023-04-18T12:52:46.846Z,24.64
2023-04-18T12:53:46.744Z,24.52
2023-04-18T12:54:46.699Z,24.62
2023-04-18T12:55:46.634Z,24.99
2023-04-18T12:56:46.597Z,25.70
2023-04-18T12:57:46.562Z,25.86
2023-04-18T12:58:46.500Z,26.48
2023-04-18T12:59:46.433Z,26.36
2023-04-18T13:00:46.476Z,27.40
2023-04-18T13:01:46.398Z,27.05
2023-04-18T13:02:46.477Z,27.49
2023-04-18T13:03:53.464Z,27.83
2023-04-18T13:04:47.305Z,27.88
2023-04-18T13:05:46.182Z,27.95
2023-04-18T13:06:46.109Z,28.53
2023-04-18T13:07:46.012Z,29.06
2023-04-18T13:08:45.957Z,30.62
2023-04-18T13:09:45.884Z,30.69
2023-04-18T13:10:45.828Z,30.57
2023-04-18T13:11:46.387Z,30.85
2023-04-18T13:12:45.666Z,30.36
2023-04-18T13:13:45.619Z,31.61
2023-04-18T13:14:45.520Z,31.88